首页
METAR-TAF:

METAR-TAF

机场 :

朱諾, 阿拉斯加州, 美国

纬度: 58-21-17N, 经度: 134-34-34W, 海拔: 6米

当前天气观测

该预报发布于23分钟前的22:53 UTC
静风
温度 16°C
湿度 55%
气压 1017 hPa
能見度: 16.1公里
少量云层高于5000英尺
多云层高于7000英尺
阴天层高于18000英尺

METAR: PAJN 232253Z 00000KT 10SM FEW050 BKN070 OVC180 16/07 A3004 RMK AO2 SLP173 T01610072

时间: 15:16 (23:16 UTC)

预报

该预报发布于5小时和40分钟前的17:36 UTC
预报有效从23日的 18点(UTC)到 24日的 18点(UTC)
风速7节,风向西转西南
能見度: 10公里
少量云层高于4000英尺
多云层高于6000英尺
多云层高于18000英尺
从 24日的 0500点(UTC)
风速4节,风向多变
能見度: 10公里
多云层高于5000英尺
从 24日的 1400点(UTC)
风速4节,风向西转西南
能見度: 10公里
少量云层高于4000英尺
散云层高于5000英尺
多云层高于7000英尺

TAF: PAJN 231736Z 2318/2418 24007KT P6SM FEW040 BKN060 BKN180 FM240500 VRB04KT P6SM BKN050 FM241400 24004KT P6SM FEW040 SCT050 BKN070

超过4000个机场的气象观测和天气预报(METAR&TAF报告)。

可查询的气象台以黄色和红色小点在地图上表示。

将鼠标移到小点上方,可查看气象台名称。

然后点击查看天气观测和预报。

如需切换地图:点击带黑十字的绿色按钮放大地图;点击带横线的绿色按钮缩小地图;或者点击绿色箭头查看邻近地区的地图。


METAR-TAF: